createdAt,value
2017-07-15T00:00:52.059Z,14.60
2017-07-15T00:03:19.495Z,14.60
2017-07-15T00:05:47.769Z,14.50
2017-07-15T00:08:15.267Z,14.40
2017-07-15T00:10:42.797Z,14.40
2017-07-15T00:13:11.780Z,14.40
2017-07-15T00:15:39.445Z,14.40
2017-07-15T00:18:06.979Z,14.40
2017-07-15T00:20:34.622Z,14.30
2017-07-15T00:23:02.289Z,14.30
2017-07-15T00:25:29.904Z,14.20
2017-07-15T00:27:57.574Z,14.20
2017-07-15T00:30:25.015Z,14.20
2017-07-15T00:32:52.481Z,14.10
2017-07-15T00:35:19.994Z,14.10
2017-07-15T00:37:47.667Z,14.00
2017-07-15T00:40:15.402Z,14.00
2017-07-15T00:42:43.075Z,13.90
2017-07-15T00:45:11.478Z,13.90
2017-07-15T00:47:39.367Z,13.90
2017-07-15T00:50:07.119Z,13.90
2017-07-15T00:52:36.250Z,13.90
2017-07-15T00:55:03.852Z,13.80
2017-07-15T00:57:31.290Z,13.80
2017-07-15T00:59:58.980Z,13.80
2017-07-15T01:02:26.579Z,13.80
2017-07-15T01:04:54.020Z,13.70
2017-07-15T01:07:21.446Z,13.70
2017-07-15T01:09:49.665Z,13.70
2017-07-15T01:12:17.203Z,13.60
2017-07-15T01:14:44.636Z,13.60
2017-07-15T01:17:12.826Z,13.60
2017-07-15T01:19:40.256Z,13.60
2017-07-15T01:22:08.463Z,13.70
2017-07-15T01:24:35.890Z,13.60
2017-07-15T01:27:05.119Z,13.60
2017-07-15T01:29:32.539Z,13.60
2017-07-15T01:32:00.752Z,13.60
2017-07-15T01:34:28.180Z,13.50
2017-07-15T01:36:56.377Z,13.50
2017-07-15T01:39:23.805Z,13.40
2017-07-15T01:41:52.007Z,13.50
2017-07-15T01:44:19.440Z,13.50
2017-07-15T01:46:46.863Z,13.40
2017-07-15T01:49:14.289Z,13.40
2017-07-15T01:51:41.736Z,13.40
2017-07-15T01:54:09.159Z,13.40
2017-07-15T01:56:37.370Z,13.30
2017-07-15T01:59:04.787Z,13.30
2017-07-15T02:01:32.991Z,13.40
2017-07-15T02:04:00.505Z,13.40
2017-07-15T02:06:28.717Z,13.40
2017-07-15T02:08:56.255Z,13.40
2017-07-15T02:11:24.456Z,13.40
2017-07-15T02:13:51.892Z,13.40
2017-07-15T02:16:19.346Z,13.40
2017-07-15T02:18:46.800Z,13.40
2017-07-15T02:21:14.987Z,13.30
2017-07-15T02:23:42.413Z,13.30
2017-07-15T02:26:10.617Z,13.40
2017-07-15T02:28:38.140Z,13.30
2017-07-15T02:31:06.350Z,13.30
2017-07-15T02:33:33.784Z,13.30
2017-07-15T02:36:02.015Z,13.30
2017-07-15T02:38:29.441Z,13.30
2017-07-15T02:40:56.877Z,13.30
2017-07-15T02:43:25.074Z,13.30
2017-07-15T02:45:52.500Z,13.30
2017-07-15T02:48:20.706Z,13.30
2017-07-15T02:50:48.191Z,13.30
2017-07-15T02:53:15.630Z,13.20
2017-07-15T02:55:43.079Z,13.20
2017-07-15T02:58:10.516Z,13.30
2017-07-15T03:00:37.943Z,13.30
2017-07-15T03:03:06.140Z,13.20
2017-07-15T03:05:33.582Z,13.20
2017-07-15T03:08:01.788Z,13.20
2017-07-15T03:10:29.217Z,13.20
2017-07-15T03:12:57.412Z,13.20
2017-07-15T03:15:24.888Z,13.20
2017-07-15T03:17:52.325Z,13.20
2017-07-15T03:20:19.745Z,13.20
2017-07-15T03:22:47.941Z,13.20
2017-07-15T03:25:15.381Z,13.20
2017-07-15T03:27:43.581Z,13.20
2017-07-15T03:30:12.021Z,13.20
2017-07-15T03:32:40.221Z,13.30
2017-07-15T03:35:07.661Z,13.30
2017-07-15T03:37:35.865Z,13.30
2017-07-15T03:40:03.345Z,13.30
2017-07-15T03:42:30.782Z,13.30
2017-07-15T03:44:58.206Z,13.30
2017-07-15T03:47:26.400Z,13.40
2017-07-15T03:49:53.996Z,13.40
2017-07-15T03:52:21.430Z,13.50
2017-07-15T03:54:48.860Z,13.50
2017-07-15T03:57:16.300Z,13.50
2017-07-15T03:59:43.740Z,13.50
2017-07-15T04:02:11.175Z,13.60
2017-07-15T04:04:38.610Z,13.60
2017-07-15T04:07:06.045Z,13.70
2017-07-15T04:09:33.480Z,13.70
2017-07-15T04:12:01.674Z,13.80
2017-07-15T04:14:29.101Z,13.70
2017-07-15T04:16:56.525Z,13.80
2017-07-15T04:19:23.966Z,13.70
2017-07-15T04:21:51.392Z,13.80
2017-07-15T04:24:18.833Z,13.70
2017-07-15T04:26:47.033Z,13.80
2017-07-15T04:29:14.485Z,13.80
2017-07-15T04:31:41.914Z,13.80
2017-07-15T04:34:10.193Z,14.00
2017-07-15T04:36:37.617Z,14.00
2017-07-15T04:39:05.046Z,14.10
2017-07-15T04:41:32.486Z,14.20
2017-07-15T04:43:59.924Z,14.20
2017-07-15T04:46:28.127Z,14.30
2017-07-15T04:48:55.567Z,14.30
2017-07-15T04:53:55.465Z,14.40
2017-07-15T04:56:22.899Z,14.50
2017-07-15T04:58:50.350Z,14.50
2017-07-15T05:01:17.765Z,14.50
2017-07-15T05:03:45.210Z,14.60
2017-07-15T05:06:13.418Z,14.80
2017-07-15T05:08:40.835Z,14.70
2017-07-15T05:11:09.024Z,14.90
2017-07-15T05:13:36.458Z,14.90
2017-07-15T05:16:04.660Z,15.00
2017-07-15T05:18:32.077Z,14.90
2017-07-15T05:20:59.509Z,14.90
2017-07-15T05:23:26.956Z,14.90
2017-07-15T05:25:54.401Z,14.90
2017-07-15T05:28:21.827Z,14.90
2017-07-15T05:30:49.266Z,15.00
2017-07-15T05:33:17.465Z,15.10
2017-07-15T05:35:44.906Z,15.10
2017-07-15T05:38:13.106Z,15.10
2017-07-15T05:40:40.530Z,15.10
2017-07-15T05:43:07.954Z,15.20
2017-07-15T05:45:35.393Z,15.20
2017-07-15T05:48:02.818Z,15.30
2017-07-15T05:50:30.262Z,15.30
2017-07-15T05:52:58.448Z,15.40
2017-07-15T05:55:25.869Z,15.40
2017-07-15T05:57:54.070Z,15.50
2017-07-15T06:00:21.509Z,15.50
2017-07-15T06:02:49.702Z,15.50
2017-07-15T06:05:17.131Z,15.50
2017-07-15T06:07:44.558Z,15.50
2017-07-15T06:10:11.983Z,15.50
2017-07-15T06:12:39.421Z,15.60
2017-07-15T06:15:06.907Z,15.70
2017-07-15T06:17:34.333Z,15.70
2017-07-15T06:20:01.756Z,15.80
2017-07-15T06:22:29.193Z,15.60
2017-07-15T06:24:56.616Z,15.60
2017-07-15T06:27:24.108Z,15.60
2017-07-15T06:29:51.558Z,15.60
2017-07-15T06:32:18.998Z,15.60
2017-07-15T06:34:46.430Z,15.70
2017-07-15T06:37:13.853Z,15.70
2017-07-15T06:39:41.367Z,15.80
2017-07-15T06:42:08.770Z,15.80
2017-07-15T06:44:36.974Z,15.80
2017-07-15T06:47:04.405Z,15.80
2017-07-15T06:49:32.600Z,15.70
2017-07-15T06:52:00.021Z,15.70
2017-07-15T06:54:27.455Z,15.70
2017-07-15T06:56:54.881Z,15.60
2017-07-15T06:59:22.301Z,15.60
2017-07-15T07:01:50.506Z,15.60
2017-07-15T07:04:17.933Z,15.60
2017-07-15T07:06:45.373Z,15.70
2017-07-15T07:09:12.809Z,16.00
2017-07-15T07:11:40.224Z,16.20
2017-07-15T07:14:07.649Z,16.50
2017-07-15T07:16:35.846Z,16.40
2017-07-15T07:19:03.281Z,16.40
2017-07-15T07:21:31.480Z,16.50
2017-07-15T07:23:58.921Z,16.50
2017-07-15T07:26:27.120Z,16.50
2017-07-15T07:28:54.550Z,16.50
2017-07-15T07:31:21.979Z,16.70
2017-07-15T07:33:49.425Z,16.80
2017-07-15T07:36:16.845Z,16.90
2017-07-15T07:38:44.270Z,17.10
2017-07-15T07:41:11.694Z,17.20
2017-07-15T07:43:39.177Z,17.40
2017-07-15T07:46:06.630Z,17.40
2017-07-15T07:48:34.854Z,17.50
2017-07-15T07:51:02.284Z,17.50
2017-07-15T07:53:29.717Z,17.40
2017-07-15T07:55:57.921Z,17.40
2017-07-15T07:58:25.358Z,17.40
2017-07-15T08:00:52.834Z,17.30
2017-07-15T08:03:20.265Z,17.40
2017-07-15T08:05:47.706Z,17.40
2017-07-15T08:08:15.901Z,17.70
2017-07-15T08:10:43.334Z,17.70
2017-07-15T08:13:11.530Z,18.00
2017-07-15T08:15:38.957Z,18.00
2017-07-15T08:20:40.965Z,17.70
2017-07-15T08:23:08.396Z,17.70
2017-07-15T08:25:36.589Z,17.60
2017-07-15T08:28:04.037Z,17.50
2017-07-15T08:30:32.241Z,17.80
2017-07-15T08:32:59.661Z,17.80
2017-07-15T08:35:27.848Z,18.10
2017-07-15T08:37:55.284Z,18.10
2017-07-15T08:40:22.698Z,18.20
2017-07-15T08:42:50.125Z,18.10
2017-07-15T08:45:17.550Z,18.10
2017-07-15T08:47:44.974Z,18.30
2017-07-15T08:50:12.401Z,18.60
2017-07-15T08:52:39.840Z,18.80
2017-07-15T08:55:07.286Z,19.00
2017-07-15T08:57:35.519Z,19.10
2017-07-15T09:00:02.951Z,19.10
2017-07-15T09:02:30.551Z,19.30
2017-07-15T09:04:57.965Z,19.50
2017-07-15T09:07:25.434Z,19.80
2017-07-15T09:09:52.858Z,20.00
2017-07-15T09:12:20.307Z,20.10
2017-07-15T09:14:48.494Z,19.80
2017-07-15T09:17:15.910Z,19.80
2017-07-15T09:19:43.422Z,19.90
2017-07-15T09:22:10.880Z,20.00
2017-07-15T09:24:38.315Z,19.90
2017-07-15T09:27:05.738Z,19.70
2017-07-15T09:29:33.176Z,19.60
2017-07-15T09:32:00.603Z,19.60
2017-07-15T09:34:28.028Z,19.60
2017-07-15T09:36:55.461Z,19.80
2017-07-15T09:39:23.651Z,19.90
2017-07-15T09:41:51.836Z,19.50
2017-07-15T09:44:19.265Z,19.50
2017-07-15T09:46:47.457Z,19.40
2017-07-15T09:49:14.914Z,19.40
2017-07-15T09:51:43.108Z,19.20
2017-07-15T09:54:10.549Z,19.20
2017-07-15T09:56:37.965Z,19.20
2017-07-15T09:59:05.396Z,19.20
2017-07-15T10:01:32.835Z,19.10
2017-07-15T10:04:00.255Z,19.10
2017-07-15T10:06:28.462Z,19.30
2017-07-15T10:08:55.893Z,19.30
2017-07-15T10:11:24.090Z,19.50
2017-07-15T10:13:51.523Z,19.50
2017-07-15T10:16:19.711Z,19.80
2017-07-15T10:18:47.133Z,19.80
2017-07-15T10:21:15.337Z,20.50
2017-07-15T10:23:42.758Z,20.40
2017-07-15T10:26:10.191Z,20.20
2017-07-15T10:28:37.626Z,19.80
2017-07-15T10:31:05.064Z,19.50
2017-07-15T10:33:32.497Z,19.20
2017-07-15T10:35:59.942Z,19.10
2017-07-15T10:38:28.142Z,19.10
2017-07-15T10:40:55.579Z,19.10
2017-07-15T10:43:23.783Z,19.10
2017-07-15T10:46:12.621Z,19.10
2017-07-15T10:48:40.050Z,19.10
2017-07-15T10:51:07.524Z,19.10
2017-07-15T10:53:34.942Z,19.10
2017-07-15T10:56:02.371Z,19.20
2017-07-15T10:58:29.782Z,19.30
2017-07-15T11:00:57.980Z,19.50
2017-07-15T11:03:25.422Z,19.50
2017-07-15T11:05:53.605Z,20.10
2017-07-15T11:08:21.021Z,20.10
2017-07-15T11:10:48.444Z,20.40
2017-07-15T11:13:15.877Z,20.60
2017-07-15T11:15:43.303Z,20.60
2017-07-15T11:18:11.506Z,21.10
2017-07-15T11:20:38.921Z,21.10
2017-07-15T11:23:06.352Z,21.40
2017-07-15T11:25:33.778Z,21.60
2017-07-15T11:28:01.206Z,21.80
2017-07-15T11:30:29.430Z,22.00
2017-07-15T11:32:56.852Z,22.00
2017-07-15T11:35:24.277Z,22.40
2017-07-15T11:37:51.718Z,22.80
2017-07-15T11:40:19.158Z,22.90
2017-07-15T11:42:46.595Z,23.00
2017-07-15T11:45:14.016Z,23.40
2017-07-15T11:47:42.209Z,23.60
2017-07-15T11:50:09.701Z,23.50
2017-07-15T11:52:37.133Z,23.60
2017-07-15T11:55:04.561Z,23.80
2017-07-15T11:57:32.762Z,23.90
2017-07-15T12:00:00.246Z,23.90
2017-07-15T12:02:27.670Z,24.20
2017-07-15T12:04:55.103Z,24.30
2017-07-15T12:07:23.281Z,24.10
2017-07-15T12:09:50.706Z,24.10
2017-07-15T12:12:18.135Z,23.70
2017-07-15T12:14:45.587Z,23.50
2017-07-15T12:17:13.013Z,23.40
2017-07-15T12:19:40.430Z,23.60
2017-07-15T12:22:07.852Z,24.00
2017-07-15T12:24:35.281Z,24.30
2017-07-15T12:27:02.717Z,24.30
2017-07-15T12:29:30.913Z,23.60
2017-07-15T12:31:58.338Z,23.60
2017-07-15T12:34:25.774Z,23.30
2017-07-15T12:36:53.214Z,22.80
2017-07-15T12:39:20.637Z,22.50
2017-07-15T12:41:48.065Z,22.30
2017-07-15T12:44:15.525Z,22.40
2017-07-15T12:46:42.940Z,22.50
2017-07-15T12:49:10.375Z,22.60
2017-07-15T12:51:37.796Z,23.00
2017-07-15T12:54:05.986Z,23.70
2017-07-15T12:56:33.414Z,23.70
2017-07-15T12:59:01.605Z,24.00
2017-07-15T13:01:29.042Z,24.00
2017-07-15T13:03:56.506Z,24.80
2017-07-15T13:06:24.694Z,29.10
2017-07-15T13:08:53.561Z,31.00
2017-07-15T13:11:20.989Z,30.90
2017-07-15T13:13:48.414Z,32.30
2017-07-15T13:16:16.006Z,32.20
2017-07-15T13:18:44.206Z,33.00
2017-07-15T13:21:11.698Z,33.00
2017-07-15T13:23:39.144Z,32.60
2017-07-15T13:26:06.574Z,30.80
2017-07-15T13:28:34.075Z,30.30
2017-07-15T13:31:01.521Z,31.90
2017-07-15T13:33:28.975Z,33.10
2017-07-15T13:35:56.403Z,33.50
2017-07-15T13:38:23.839Z,32.00
2017-07-15T13:40:52.039Z,28.50
2017-07-15T13:43:19.472Z,28.50
2017-07-15T13:45:47.700Z,26.20
2017-07-15T13:48:15.136Z,26.10
2017-07-15T13:50:42.619Z,26.00
2017-07-15T13:53:10.123Z,27.70
2017-07-15T13:55:38.311Z,31.40
2017-07-15T13:58:05.741Z,31.40
2017-07-15T14:00:34.006Z,34.30
2017-07-15T14:03:08.177Z,34.20
2017-07-15T14:05:36.510Z,34.80
2017-07-15T14:08:04.017Z,34.70
2017-07-15T14:10:31.570Z,35.30
2017-07-15T14:12:59.030Z,35.50
2017-07-15T14:15:26.450Z,35.10
2017-07-15T14:17:53.888Z,35.30
2017-07-15T14:20:21.296Z,35.50
2017-07-15T14:22:48.753Z,35.20
2017-07-15T14:25:16.176Z,34.30
2017-07-15T14:27:43.660Z,34.20
2017-07-15T14:30:11.212Z,34.60
2017-07-15T14:32:38.621Z,35.10
2017-07-15T14:35:06.882Z,31.70
2017-07-15T14:37:34.405Z,31.60
2017-07-15T14:40:01.846Z,29.70
2017-07-15T14:42:29.279Z,28.40
2017-07-15T14:44:57.502Z,26.50
2017-07-15T14:47:24.925Z,26.50
2017-07-15T14:49:52.421Z,26.00
2017-07-15T14:52:19.849Z,25.60
2017-07-15T14:54:47.266Z,25.30
2017-07-15T14:57:14.695Z,24.90
2017-07-15T14:59:42.129Z,24.50
2017-07-15T15:02:09.555Z,24.30
2017-07-15T15:04:36.993Z,24.20
2017-07-15T15:07:05.191Z,23.80
2017-07-15T15:09:32.601Z,23.80
2017-07-15T15:12:00.113Z,23.60
2017-07-15T15:14:27.541Z,23.50
2017-07-15T15:16:54.963Z,23.50
2017-07-15T15:19:22.392Z,23.60
2017-07-15T15:21:49.810Z,23.70
2017-07-15T15:24:17.257Z,23.90
2017-07-15T15:26:45.453Z,24.20
2017-07-15T15:29:12.884Z,24.20
2017-07-15T15:31:41.076Z,24.60
2017-07-15T15:34:08.510Z,24.60
2017-07-15T15:36:36.706Z,24.50
2017-07-15T15:39:04.126Z,24.50
2017-07-15T15:41:31.541Z,24.40
2017-07-15T15:43:59.018Z,24.40
2017-07-15T15:46:26.432Z,24.50
2017-07-15T15:48:53.857Z,24.30
2017-07-15T15:51:22.052Z,23.90
2017-07-15T15:53:49.482Z,23.90
2017-07-15T15:56:17.015Z,23.60
2017-07-15T15:58:44.441Z,23.60
2017-07-15T16:01:11.849Z,24.40
2017-07-15T16:03:39.264Z,25.50
2017-07-15T16:06:06.697Z,26.30
2017-07-15T16:08:34.113Z,26.50
2017-07-15T16:11:01.668Z,26.50
2017-07-15T16:13:29.098Z,26.20
2017-07-15T16:15:56.557Z,25.80
2017-07-15T16:18:23.996Z,25.80
2017-07-15T16:20:51.473Z,25.80
2017-07-15T16:23:18.898Z,26.20
2017-07-15T16:25:46.317Z,26.10
2017-07-15T16:28:14.499Z,26.10
2017-07-15T16:30:42.693Z,25.70
2017-07-15T16:33:10.117Z,25.70
2017-07-15T16:35:38.369Z,25.60
2017-07-15T16:38:05.808Z,25.60
2017-07-15T16:40:33.229Z,25.70
2017-07-15T16:43:00.653Z,25.90
2017-07-15T16:45:29.580Z,26.20
2017-07-15T16:47:57.066Z,26.20
2017-07-15T16:50:24.509Z,26.00
2017-07-15T16:52:51.949Z,25.90
2017-07-15T16:55:19.374Z,25.90
2017-07-15T16:57:46.802Z,25.80
2017-07-15T17:00:14.223Z,25.70
2017-07-15T17:02:41.643Z,25.60
2017-07-15T17:05:09.069Z,25.40
2017-07-15T17:07:36.495Z,25.10
2017-07-15T17:10:03.921Z,24.90
2017-07-15T17:12:32.117Z,24.50
2017-07-15T17:14:59.526Z,24.40
2017-07-15T17:17:27.066Z,24.50
2017-07-15T17:19:54.482Z,24.60
2017-07-15T17:22:21.918Z,24.60
2017-07-15T17:24:50.334Z,24.70
2017-07-15T17:27:17.790Z,24.70
2017-07-15T17:29:45.195Z,24.70
2017-07-15T17:32:12.626Z,24.90
2017-07-15T17:34:40.054Z,25.20
2017-07-15T17:37:07.513Z,25.40
2017-07-15T17:39:34.973Z,25.40
2017-07-15T17:42:02.417Z,25.50
2017-07-15T17:44:29.831Z,25.10
2017-07-15T17:46:58.019Z,25.20
2017-07-15T17:49:26.209Z,25.20
2017-07-15T17:51:53.637Z,25.20
2017-07-15T17:54:21.853Z,24.80
2017-07-15T17:56:49.282Z,24.80
2017-07-15T17:59:16.709Z,24.80
2017-07-15T18:01:44.152Z,25.00
2017-07-15T18:04:11.585Z,25.10
2017-07-15T18:06:38.993Z,25.20
2017-07-15T18:09:06.433Z,25.10
2017-07-15T18:11:33.859Z,24.90
2017-07-15T18:14:01.403Z,24.70
2017-07-15T18:16:28.813Z,24.50
2017-07-15T18:18:56.996Z,24.30
2017-07-15T18:21:25.223Z,24.10
2017-07-15T18:26:26.642Z,23.90
2017-07-15T18:28:54.078Z,23.40
2017-07-15T18:31:22.437Z,23.10
2017-07-15T18:33:49.861Z,22.70
2017-07-15T18:36:17.312Z,22.40
2017-07-15T18:38:44.792Z,22.30
2017-07-15T18:41:12.232Z,22.10
2017-07-15T18:43:39.657Z,22.10
2017-07-15T18:46:07.081Z,22.00
2017-07-15T18:48:34.509Z,21.90
2017-07-15T18:51:01.941Z,21.80
2017-07-15T18:53:29.417Z,21.60
2017-07-15T18:55:56.844Z,21.50
2017-07-15T18:58:24.335Z,21.40
2017-07-15T19:00:51.748Z,21.30
2017-07-15T19:03:19.186Z,21.20
2017-07-15T19:05:46.652Z,21.10
2017-07-15T19:08:14.073Z,21.00
2017-07-15T19:10:41.516Z,20.90
2017-07-15T19:13:09.077Z,20.80
2017-07-15T19:15:36.521Z,20.70
2017-07-15T19:18:03.953Z,20.70
2017-07-15T19:20:32.144Z,20.60
2017-07-15T19:23:05.918Z,20.50
2017-07-15T19:25:33.375Z,20.50
2017-07-15T19:28:00.831Z,20.30
2017-07-15T19:30:28.253Z,20.30
2017-07-15T19:32:55.676Z,20.30
2017-07-15T19:35:23.104Z,20.20
2017-07-15T19:37:51.352Z,20.10
2017-07-15T19:40:18.763Z,20.10
2017-07-15T19:42:46.247Z,20.10
2017-07-15T19:45:13.788Z,20.00
2017-07-15T19:50:22.838Z,19.90
2017-07-15T19:52:50.261Z,19.70
2017-07-15T19:55:18.545Z,19.60
2017-07-15T19:57:46.842Z,19.60
2017-07-15T20:00:14.331Z,19.60
2017-07-15T20:02:41.947Z,19.50
2017-07-15T20:05:09.431Z,19.50
2017-07-15T20:07:36.989Z,19.50
2017-07-15T20:10:04.438Z,19.40
2017-07-15T20:12:31.965Z,19.30
2017-07-15T20:15:00.243Z,19.30
2017-07-15T20:17:28.556Z,19.20
2017-07-15T20:19:56.025Z,19.20
2017-07-15T20:22:23.588Z,19.20
2017-07-15T20:24:51.135Z,19.10
2017-07-15T20:27:18.582Z,19.10
2017-07-15T20:29:46.084Z,19.10
2017-07-15T20:32:13.543Z,19.00
2017-07-15T20:34:41.904Z,18.90
2017-07-15T20:37:13.399Z,18.90
2017-07-15T20:39:40.845Z,18.90
2017-07-15T20:42:08.367Z,18.80
2017-07-15T20:44:36.702Z,18.70
2017-07-15T20:47:04.213Z,18.70
2017-07-15T20:49:32.580Z,18.70
2017-07-15T20:52:15.755Z,18.70
2017-07-15T20:54:43.174Z,18.60
2017-07-15T20:57:11.425Z,18.50
2017-07-15T20:59:38.899Z,18.50
2017-07-15T21:02:07.265Z,18.50
2017-07-15T21:04:34.782Z,18.50
2017-07-15T21:07:02.228Z,18.50
2017-07-15T21:09:29.693Z,18.50
2017-07-15T21:11:57.157Z,18.60
2017-07-15T21:14:24.610Z,18.60
2017-07-15T21:16:52.117Z,18.60
2017-07-15T21:19:19.587Z,18.60
2017-07-15T21:21:58.662Z,18.50
2017-07-15T21:24:32.085Z,18.50
2017-07-15T21:27:00.897Z,18.50
2017-07-15T21:29:32.079Z,18.40
2017-07-15T21:31:59.489Z,18.40
2017-07-15T21:34:26.922Z,18.30
2017-07-15T21:36:54.356Z,18.40
2017-07-15T21:39:21.786Z,18.30
2017-07-15T21:41:50.006Z,18.10
2017-07-15T21:44:17.427Z,18.10
2017-07-15T21:46:44.966Z,18.20
2017-07-15T21:49:13.176Z,18.20
2017-07-15T21:51:40.616Z,18.20
2017-07-15T21:54:08.030Z,18.10
2017-07-15T21:56:35.466Z,17.90
2017-07-15T21:59:03.881Z,17.90
2017-07-15T22:01:31.539Z,17.80
2017-07-15T22:03:58.969Z,17.80
2017-07-15T22:06:26.433Z,17.70
2017-07-15T22:08:53.915Z,17.80
2017-07-15T22:11:21.385Z,17.90
2017-07-15T22:13:49.214Z,17.90
2017-07-15T22:16:17.628Z,17.80
2017-07-15T22:18:45.042Z,17.80
2017-07-15T22:21:12.469Z,17.80
2017-07-15T22:23:40.020Z,17.70
2017-07-15T22:26:07.450Z,17.60
2017-07-15T22:28:34.913Z,17.50
2017-07-15T22:31:02.361Z,17.50
2017-07-15T22:33:29.819Z,17.50
2017-07-15T22:35:57.257Z,17.50
2017-07-15T22:38:24.754Z,17.50
2017-07-15T22:40:52.181Z,17.40
2017-07-15T22:43:20.266Z,17.40
2017-07-15T22:45:47.679Z,17.40
2017-07-15T22:48:15.164Z,17.40
2017-07-15T22:50:42.594Z,17.30
2017-07-15T22:53:10.019Z,17.30
2017-07-15T22:55:37.446Z,17.20
2017-07-15T22:58:04.884Z,17.20
2017-07-15T23:00:32.392Z,17.10
2017-07-15T23:03:00.581Z,17.10
2017-07-15T23:05:28.029Z,17.10
2017-07-15T23:07:56.209Z,17.00
2017-07-15T23:10:24.419Z,17.00
2017-07-15T23:12:51.842Z,16.90
2017-07-15T23:15:19.270Z,17.00
2017-07-15T23:17:46.703Z,16.90
2017-07-15T23:20:14.130Z,16.70
2017-07-15T23:22:41.554Z,16.50
2017-07-15T23:25:09.745Z,16.40
2017-07-15T23:27:37.184Z,16.30
2017-07-15T23:30:04.603Z,16.30
2017-07-15T23:32:32.029Z,16.20
2017-07-15T23:34:59.454Z,16.30
2017-07-15T23:37:27.662Z,16.10
2017-07-15T23:39:55.091Z,16.20
2017-07-15T23:42:22.527Z,16.10
2017-07-15T23:44:49.955Z,16.10
2017-07-15T23:47:17.467Z,16.00
2017-07-15T23:49:45.638Z,15.90
2017-07-15T23:52:13.062Z,15.90
2017-07-15T23:54:40.490Z,15.90
2017-07-15T23:57:07.918Z,15.80
2017-07-15T23:59:35.341Z,15.80
